sensor_id;sensor_type;location;lat;lon;timestamp;P1;durP1;ratioP1;P2;durP2;ratioP2
23490;SDS011;14683;50.038;8.078;2023-07-16T03:02:24;4.95;;;2.60;;
23490;SDS011;14683;50.038;8.078;2023-07-16T03:05:26;8.07;;;3.10;;
23490;SDS011;14683;50.038;8.078;2023-07-16T03:08:28;4.00;;;2.90;;
23490;SDS011;14683;50.038;8.078;2023-07-16T03:11:30;4.22;;;2.90;;
23490;SDS011;14683;50.038;8.078;2023-07-16T03:14:31;4.50;;;2.80;;
23490;SDS011;14683;50.038;8.078;2023-07-16T03:17:33;6.32;;;3.13;;
23490;SDS011;14683;50.038;8.078;2023-07-16T03:20:34;5.55;;;2.53;;
23490;SDS011;14683;50.038;8.078;2023-07-16T03:23:36;6.03;;;2.55;;
23490;SDS011;14683;50.038;8.078;2023-07-16T03:26:37;5.13;;;2.80;;
23490;SDS011;14683;50.038;8.078;2023-07-16T03:29:38;5.68;;;2.53;;
23490;SDS011;14683;50.038;8.078;2023-07-16T03:32:41;7.10;;;2.83;;
23490;SDS011;14683;50.038;8.078;2023-07-16T03:35:43;7.43;;;2.40;;
23490;SDS011;14683;50.038;8.078;2023-07-16T03:38:45;7.68;;;2.90;;
23490;SDS011;14683;50.038;8.078;2023-07-16T03:41:46;5.15;;;2.38;;
23490;SDS011;14683;50.038;8.078;2023-07-16T03:44:49;13.15;;;2.90;;
23490;SDS011;14683;50.038;8.078;2023-07-16T03:47:50;3.97;;;2.47;;
23490;SDS011;14683;50.038;8.078;2023-07-16T03:50:51;4.78;;;2.60;;
23490;SDS011;14683;50.038;8.078;2023-07-16T03:53:53;5.65;;;2.70;;
23490;SDS011;14683;50.038;8.078;2023-07-16T03:56:55;5.32;;;2.20;;
23490;SDS011;14683;50.038;8.078;2023-07-16T04:00:00;4.97;;;2.60;;
23490;SDS011;14683;50.038;8.078;2023-07-16T04:03:03;8.27;;;2.58;;
23490;SDS011;14683;50.038;8.078;2023-07-16T04:06:05;6.10;;;2.60;;
23490;SDS011;14683;50.038;8.078;2023-07-16T04:09:07;8.85;;;2.80;;
23490;SDS011;14683;50.038;8.078;2023-07-16T04:12:08;5.78;;;2.90;;
23490;SDS011;14683;50.038;8.078;2023-07-16T04:15:09;5.32;;;2.30;;
23490;SDS011;14683;50.038;8.078;2023-07-16T04:18:11;6.93;;;2.63;;
23490;SDS011;14683;50.038;8.078;2023-07-16T04:21:12;5.80;;;2.83;;
23490;SDS011;14683;50.038;8.078;2023-07-16T04:24:13;5.15;;;2.38;;
23490;SDS011;14683;50.038;8.078;2023-07-16T04:27:14;7.18;;;2.85;;
23490;SDS011;14683;50.038;8.078;2023-07-16T04:30:15;6.82;;;2.83;;
23490;SDS011;14683;50.038;8.078;2023-07-16T04:33:16;5.45;;;3.08;;
23490;SDS011;14683;50.038;8.078;2023-07-16T04:36:19;6.75;;;2.85;;
23490;SDS011;14683;50.038;8.078;2023-07-16T04:39:20;6.10;;;2.47;;
23490;SDS011;14683;50.038;8.078;2023-07-16T04:42:22;7.63;;;2.45;;
23490;SDS011;14683;50.038;8.078;2023-07-16T04:45:23;9.57;;;2.70;;
23490;SDS011;14683;50.038;8.078;2023-07-16T04:48:24;5.90;;;2.47;;
23490;SDS011;14683;50.038;8.078;2023-07-16T04:51:26;8.63;;;2.75;;
23490;SDS011;14683;50.038;8.078;2023-07-16T04:54:27;6.03;;;2.08;;
23490;SDS011;14683;50.038;8.078;2023-07-16T04:57:28;7.78;;;2.90;;
23490;SDS011;14683;50.038;8.078;2023-07-16T05:00:31;8.93;;;2.88;;
23490;SDS011;14683;50.038;8.078;2023-07-16T05:03:33;7.28;;;2.67;;
23490;SDS011;14683;50.038;8.078;2023-07-16T05:06:34;6.07;;;2.55;;
23490;SDS011;14683;50.038;8.078;2023-07-16T05:09:35;12.93;;;3.15;;
23490;SDS011;14683;50.038;8.078;2023-07-16T05:12:37;8.02;;;2.78;;
23490;SDS011;14683;50.038;8.078;2023-07-16T05:15:38;9.35;;;2.72;;
23490;SDS011;14683;50.038;8.078;2023-07-16T05:18:39;6.85;;;2.85;;
23490;SDS011;14683;50.038;8.078;2023-07-16T05:21:40;10.23;;;2.78;;
23490;SDS011;14683;50.038;8.078;2023-07-16T05:24:41;8.48;;;3.15;;
23490;SDS011;14683;50.038;8.078;2023-07-16T05:27:42;7.85;;;2.72;;
23490;SDS011;14683;50.038;8.078;2023-07-16T05:30:43;6.05;;;2.88;;
23490;SDS011;14683;50.038;8.078;2023-07-16T05:33:45;7.22;;;3.13;;
23490;SDS011;14683;50.038;8.078;2023-07-16T05:36:46;9.88;;;3.30;;
23490;SDS011;14683;50.038;8.078;2023-07-16T05:39:47;12.98;;;3.42;;
23490;SDS011;14683;50.038;8.078;2023-07-16T05:42:48;7.03;;;2.95;;
23490;SDS011;14683;50.038;8.078;2023-07-16T05:45:49;8.63;;;3.08;;
23490;SDS011;14683;50.038;8.078;2023-07-16T05:48:51;6.03;;;2.83;;
23490;SDS011;14683;50.038;8.078;2023-07-16T05:51:52;4.60;;;2.65;;
23490;SDS011;14683;50.038;8.078;2023-07-16T05:54:55;10.70;;;3.33;;
23490;SDS011;14683;50.038;8.078;2023-07-16T05:57:56;10.65;;;3.22;;
23490;SDS011;14683;50.038;8.078;2023-07-16T06:00:57;6.65;;;3.10;;
23490;SDS011;14683;50.038;8.078;2023-07-16T06:03:58;7.38;;;2.53;;
23490;SDS011;14683;50.038;8.078;2023-07-16T06:06:59;6.70;;;2.90;;
23490;SDS011;14683;50.038;8.078;2023-07-16T06:10:00;7.28;;;3.40;;
23490;SDS011;14683;50.038;8.078;2023-07-16T06:13:01;5.53;;;2.83;;
23490;SDS011;14683;50.038;8.078;2023-07-16T06:16:03;7.93;;;2.97;;
23490;SDS011;14683;50.038;8.078;2023-07-16T06:19:04;6.43;;;3.13;;
23490;SDS011;14683;50.038;8.078;2023-07-16T06:22:05;9.95;;;2.72;;
23490;SDS011;14683;50.038;8.078;2023-07-16T06:25:06;7.30;;;2.58;;
23490;SDS011;14683;50.038;8.078;2023-07-16T06:28:08;9.30;;;2.55;;
23490;SDS011;14683;50.038;8.078;2023-07-16T06:31:10;7.80;;;2.83;;
23490;SDS011;14683;50.038;8.078;2023-07-16T06:34:11;7.93;;;2.85;;
23490;SDS011;14683;50.038;8.078;2023-07-16T06:37:12;7.82;;;2.70;;
23490;SDS011;14683;50.038;8.078;2023-07-16T06:40:13;5.30;;;3.08;;
23490;SDS011;14683;50.038;8.078;2023-07-16T06:43:15;6.28;;;2.78;;
23490;SDS011;14683;50.038;8.078;2023-07-16T06:46:17;9.43;;;3.00;;
23490;SDS011;14683;50.038;8.078;2023-07-16T06:49:18;8.70;;;3.35;;
23490;SDS011;14683;50.038;8.078;2023-07-16T06:52:23;9.23;;;3.17;;
23490;SDS011;14683;50.038;8.078;2023-07-16T06:55:28;6.65;;;2.88;;
23490;SDS011;14683;50.038;8.078;2023-07-16T06:58:32;5.30;;;2.70;;
23490;SDS011;14683;50.038;8.078;2023-07-16T07:01:34;7.10;;;3.28;;
23490;SDS011;14683;50.038;8.078;2023-07-16T07:04:35;6.88;;;2.70;;
23490;SDS011;14683;50.038;8.078;2023-07-16T07:07:36;7.05;;;3.05;;
23490;SDS011;14683;50.038;8.078;2023-07-16T07:10:37;8.07;;;2.97;;
23490;SDS011;14683;50.038;8.078;2023-07-16T07:13:40;8.70;;;2.95;;
23490;SDS011;14683;50.038;8.078;2023-07-16T07:16:43;7.22;;;2.70;;
23490;SDS011;14683;50.038;8.078;2023-07-16T07:19:44;6.35;;;2.92;;
23490;SDS011;14683;50.038;8.078;2023-07-16T07:22:45;7.07;;;2.83;;
23490;SDS011;14683;50.038;8.078;2023-07-16T07:25:50;7.53;;;3.15;;
23490;SDS011;14683;50.038;8.078;2023-07-16T07:28:51;8.02;;;2.83;;
23490;SDS011;14683;50.038;8.078;2023-07-16T07:31:53;5.22;;;2.90;;
23490;SDS011;14683;50.038;8.078;2023-07-16T07:34:54;7.95;;;3.17;;
23490;SDS011;14683;50.038;8.078;2023-07-16T07:37:55;7.53;;;3.00;;
23490;SDS011;14683;50.038;8.078;2023-07-16T07:40:56;10.52;;;3.05;;
23490;SDS011;14683;50.038;8.078;2023-07-16T07:43:57;7.32;;;2.85;;
23490;SDS011;14683;50.038;8.078;2023-07-16T07:46:59;7.63;;;2.85;;
23490;SDS011;14683;50.038;8.078;2023-07-16T07:50:00;5.10;;;2.90;;
23490;SDS011;14683;50.038;8.078;2023-07-16T07:53:01;8.38;;;3.00;;
23490;SDS011;14683;50.038;8.078;2023-07-16T07:56:02;6.85;;;2.75;;
23490;SDS011;14683;50.038;8.078;2023-07-16T07:59:04;6.70;;;3.10;;
23490;SDS011;14683;50.038;8.078;2023-07-16T08:02:05;5.88;;;2.70;;
23490;SDS011;14683;50.038;8.078;2023-07-16T08:05:06;6.30;;;3.10;;
23490;SDS011;14683;50.038;8.078;2023-07-16T08:08:08;8.52;;;3.08;;
23490;SDS011;14683;50.038;8.078;2023-07-16T08:11:09;5.25;;;2.45;;
23490;SDS011;14683;50.038;8.078;2023-07-16T08:14:10;5.45;;;3.05;;
23490;SDS011;14683;50.038;8.078;2023-07-16T08:17:11;5.45;;;2.60;;
23490;SDS011;14683;50.038;8.078;2023-07-16T08:20:13;4.65;;;2.80;;
23490;SDS011;14683;50.038;8.078;2023-07-16T08:23:14;4.53;;;2.40;;
23490;SDS011;14683;50.038;8.078;2023-07-16T08:26:16;4.70;;;2.78;;
23490;SDS011;14683;50.038;8.078;2023-07-16T08:29:17;3.72;;;2.42;;
23490;SDS011;14683;50.038;8.078;2023-07-16T08:32:18;5.30;;;2.50;;
23490;SDS011;14683;50.038;8.078;2023-07-16T08:35:20;5.82;;;2.65;;
23490;SDS011;14683;50.038;8.078;2023-07-16T08:38:21;7.07;;;2.53;;
23490;SDS011;14683;50.038;8.078;2023-07-16T08:41:22;6.25;;;2.45;;
23490;SDS011;14683;50.038;8.078;2023-07-16T08:44:23;4.85;;;2.42;;
23490;SDS011;14683;50.038;8.078;2023-07-16T08:47:24;6.75;;;2.70;;
23490;SDS011;14683;50.038;8.078;2023-07-16T08:50:26;3.30;;;2.20;;
23490;SDS011;14683;50.038;8.078;2023-07-16T08:53:27;4.65;;;2.70;;
23490;SDS011;14683;50.038;8.078;2023-07-16T08:56:28;5.22;;;2.58;;
23490;SDS011;14683;50.038;8.078;2023-07-16T08:59:29;7.30;;;2.85;;
23490;SDS011;14683;50.038;8.078;2023-07-16T09:02:31;6.88;;;2.72;;
23490;SDS011;14683;50.038;8.078;2023-07-16T09:05:32;9.65;;;3.63;;
23490;SDS011;14683;50.038;8.078;2023-07-16T09:08:33;5.55;;;2.65;;
23490;SDS011;14683;50.038;8.078;2023-07-16T09:11:34;6.00;;;2.92;;
23490;SDS011;14683;50.038;8.078;2023-07-16T09:14:35;4.75;;;2.67;;
23490;SDS011;14683;50.038;8.078;2023-07-16T09:17:37;5.45;;;2.65;;
23490;SDS011;14683;50.038;8.078;2023-07-16T09:20:39;5.57;;;2.67;;
23490;SDS011;14683;50.038;8.078;2023-07-16T09:23:42;4.78;;;2.65;;
23490;SDS011;14683;50.038;8.078;2023-07-16T09:26:50;8.30;;;3.15;;
23490;SDS011;14683;50.038;8.078;2023-07-16T09:29:52;6.18;;;2.92;;
23490;SDS011;14683;50.038;8.078;2023-07-16T09:32:53;4.95;;;2.80;;
23490;SDS011;14683;50.038;8.078;2023-07-16T09:35:54;5.82;;;2.53;;
23490;SDS011;14683;50.038;8.078;2023-07-16T09:38:55;4.82;;;2.97;;
23490;SDS011;14683;50.038;8.078;2023-07-16T09:41:58;4.88;;;2.50;;
23490;SDS011;14683;50.038;8.078;2023-07-16T09:44:59;6.22;;;2.67;;
23490;SDS011;14683;50.038;8.078;2023-07-16T09:48:02;3.80;;;2.53;;
23490;SDS011;14683;50.038;8.078;2023-07-16T09:51:04;5.05;;;2.75;;
23490;SDS011;14683;50.038;8.078;2023-07-16T09:54:07;5.70;;;2.60;;
23490;SDS011;14683;50.038;8.078;2023-07-16T09:57:09;5.97;;;2.97;;
23490;SDS011;14683;50.038;8.078;2023-07-16T10:00:11;5.85;;;2.60;;
23490;SDS011;14683;50.038;8.078;2023-07-16T10:03:17;7.18;;;2.63;;
23490;SDS011;14683;50.038;8.078;2023-07-16T10:06:18;4.55;;;2.80;;
23490;SDS011;14683;50.038;8.078;2023-07-16T10:09:32;5.93;;;2.78;;
23490;SDS011;14683;50.038;8.078;2023-07-16T10:12:40;5.47;;;2.50;;
23490;SDS011;14683;50.038;8.078;2023-07-16T10:15:57;6.40;;;2.78;;
23490;SDS011;14683;50.038;8.078;2023-07-16T10:18:59;4.38;;;2.95;;
23490;SDS011;14683;50.038;8.078;2023-07-16T10:22:01;5.80;;;2.92;;
23490;SDS011;14683;50.038;8.078;2023-07-16T10:25:03;5.45;;;2.80;;
23490;SDS011;14683;50.038;8.078;2023-07-16T10:28:25;8.35;;;3.13;;
23490;SDS011;14683;50.038;8.078;2023-07-16T10:31:27;8.63;;;2.95;;
23490;SDS011;14683;50.038;8.078;2023-07-16T10:34:28;5.80;;;2.78;;
23490;SDS011;14683;50.038;8.078;2023-07-16T10:37:29;3.75;;;3.08;;
23490;SDS011;14683;50.038;8.078;2023-07-16T10:40:30;5.20;;;2.78;;
23490;SDS011;14683;50.038;8.078;2023-07-16T10:43:31;4.93;;;2.47;;
23490;SDS011;14683;50.038;8.078;2023-07-16T10:46:33;5.70;;;2.70;;
23490;SDS011;14683;50.038;8.078;2023-07-16T10:49:34;6.03;;;2.92;;
23490;SDS011;14683;50.038;8.078;2023-07-16T10:52:36;5.30;;;2.85;;
23490;SDS011;14683;50.038;8.078;2023-07-16T10:55:38;4.22;;;2.50;;
23490;SDS011;14683;50.038;8.078;2023-07-16T10:58:39;6.50;;;2.65;;
23490;SDS011;14683;50.038;8.078;2023-07-16T11:01:41;5.95;;;2.65;;
23490;SDS011;14683;50.038;8.078;2023-07-16T11:04:43;8.27;;;3.25;;
23490;SDS011;14683;50.038;8.078;2023-07-16T11:07:46;4.80;;;3.15;;
23490;SDS011;14683;50.038;8.078;2023-07-16T11:10:55;4.95;;;2.70;;
23490;SDS011;14683;50.038;8.078;2023-07-16T11:13:57;6.28;;;2.70;;
23490;SDS011;14683;50.038;8.078;2023-07-16T11:17:03;5.63;;;2.67;;
23490;SDS011;14683;50.038;8.078;2023-07-16T11:20:06;5.25;;;2.90;;
23490;SDS011;14683;50.038;8.078;2023-07-16T11:23:09;5.85;;;3.33;;
23490;SDS011;14683;50.038;8.078;2023-07-16T11:26:11;6.28;;;2.78;;
23490;SDS011;14683;50.038;8.078;2023-07-16T11:29:13;6.57;;;3.40;;
23490;SDS011;14683;50.038;8.078;2023-07-16T11:35:31;5.93;;;3.03;;
23490;SDS011;14683;50.038;8.078;2023-07-16T11:38:35;5.95;;;3.42;;
23490;SDS011;14683;50.038;8.078;2023-07-16T11:41:37;4.68;;;3.25;;
23490;SDS011;14683;50.038;8.078;2023-07-16T11:44:39;5.70;;;3.40;;
23490;SDS011;14683;50.038;8.078;2023-07-16T11:47:40;5.97;;;3.47;;
23490;SDS011;14683;50.038;8.078;2023-07-16T11:50:41;5.97;;;3.10;;
23490;SDS011;14683;50.038;8.078;2023-07-16T11:53:43;6.68;;;3.22;;
23490;SDS011;14683;50.038;8.078;2023-07-16T11:56:44;4.95;;;3.00;;
23490;SDS011;14683;50.038;8.078;2023-07-16T11:59:45;3.92;;;3.30;;
23490;SDS011;14683;50.038;8.078;2023-07-16T12:02:46;4.68;;;3.10;;
23490;SDS011;14683;50.038;8.078;2023-07-16T12:05:51;5.13;;;3.20;;
23490;SDS011;14683;50.038;8.078;2023-07-16T12:08:53;5.80;;;3.58;;
23490;SDS011;14683;50.038;8.078;2023-07-16T12:11:56;6.63;;;3.60;;
23490;SDS011;14683;50.038;8.078;2023-07-16T12:14:57;4.25;;;3.30;;
23490;SDS011;14683;50.038;8.078;2023-07-16T12:17:58;4.22;;;3.20;;
23490;SDS011;14683;50.038;8.078;2023-07-16T12:20:59;4.80;;;3.22;;
23490;SDS011;14683;50.038;8.078;2023-07-16T12:24:00;4.60;;;3.00;;
23490;SDS011;14683;50.038;8.078;2023-07-16T12:27:02;5.35;;;3.53;;
23490;SDS011;14683;50.038;8.078;2023-07-16T12:30:03;8.48;;;3.78;;
23490;SDS011;14683;50.038;8.078;2023-07-16T12:33:05;5.25;;;3.25;;
23490;SDS011;14683;50.038;8.078;2023-07-16T12:36:06;8.95;;;3.63;;
23490;SDS011;14683;50.038;8.078;2023-07-16T12:39:07;4.55;;;3.17;;
23490;SDS011;14683;50.038;8.078;2023-07-16T12:42:08;4.95;;;3.50;;
23490;SDS011;14683;50.038;8.078;2023-07-16T12:45:09;5.70;;;3.35;;
23490;SDS011;14683;50.038;8.078;2023-07-16T12:48:11;6.18;;;3.47;;
23490;SDS011;14683;50.038;8.078;2023-07-16T12:51:12;6.70;;;4.00;;
23490;SDS011;14683;50.038;8.078;2023-07-16T12:54:13;5.63;;;3.60;;
23490;SDS011;14683;50.038;8.078;2023-07-16T12:57:14;7.57;;;3.95;;
23490;SDS011;14683;50.038;8.078;2023-07-16T13:00:16;5.47;;;3.53;;
23490;SDS011;14683;50.038;8.078;2023-07-16T13:03:17;5.95;;;3.97;;
23490;SDS011;14683;50.038;8.078;2023-07-16T13:06:18;5.75;;;3.47;;
23490;SDS011;14683;50.038;8.078;2023-07-16T13:09:19;4.15;;;3.63;;
23490;SDS011;14683;50.038;8.078;2023-07-16T13:12:20;7.97;;;4.18;;
23490;SDS011;14683;50.038;8.078;2023-07-16T13:15:22;5.90;;;3.55;;
23490;SDS011;14683;50.038;8.078;2023-07-16T13:18:23;6.03;;;3.92;;
23490;SDS011;14683;50.038;8.078;2023-07-16T13:21:24;6.03;;;3.60;;
23490;SDS011;14683;50.038;8.078;2023-07-16T13:24:25;5.13;;;3.70;;
23490;SDS011;14683;50.038;8.078;2023-07-16T13:27:26;7.40;;;3.92;;
23490;SDS011;14683;50.038;8.078;2023-07-16T13:30:27;4.68;;;3.50;;
23490;SDS011;14683;50.038;8.078;2023-07-16T13:33:28;5.43;;;3.67;;
23490;SDS011;14683;50.038;8.078;2023-07-16T13:36:30;4.93;;;3.70;;
23490;SDS011;14683;50.038;8.078;2023-07-16T13:39:31;5.97;;;3.63;;
23490;SDS011;14683;50.038;8.078;2023-07-16T13:42:32;7.35;;;3.88;;
23490;SDS011;14683;50.038;8.078;2023-07-16T13:45:33;5.95;;;3.70;;
23490;SDS011;14683;50.038;8.078;2023-07-16T13:48:35;4.68;;;3.45;;
23490;SDS011;14683;50.038;8.078;2023-07-16T13:51:36;4.93;;;3.50;;
23490;SDS011;14683;50.038;8.078;2023-07-16T13:54:37;6.78;;;3.90;;
23490;SDS011;14683;50.038;8.078;2023-07-16T13:57:38;7.47;;;4.05;;
23490;SDS011;14683;50.038;8.078;2023-07-16T14:00:39;6.25;;;3.75;;
23490;SDS011;14683;50.038;8.078;2023-07-16T14:03:40;5.85;;;3.53;;
23490;SDS011;14683;50.038;8.078;2023-07-16T14:06:41;7.50;;;3.83;;
23490;SDS011;14683;50.038;8.078;2023-07-16T14:09:43;7.00;;;4.15;;
23490;SDS011;14683;50.038;8.078;2023-07-16T14:12:44;6.95;;;4.55;;
23490;SDS011;14683;50.038;8.078;2023-07-16T14:15:45;5.03;;;3.95;;
23490;SDS011;14683;50.038;8.078;2023-07-16T14:18:50;7.07;;;3.90;;
23490;SDS011;14683;50.038;8.078;2023-07-16T14:21:55;5.00;;;3.72;;
23490;SDS011;14683;50.038;8.078;2023-07-16T14:24:56;8.07;;;4.13;;
23490;SDS011;14683;50.038;8.078;2023-07-16T14:27:57;4.07;;;3.35;;
23490;SDS011;14683;50.038;8.078;2023-07-16T14:30:58;6.20;;;3.90;;
23490;SDS011;14683;50.038;8.078;2023-07-16T14:33:59;6.47;;;4.07;;
23490;SDS011;14683;50.038;8.078;2023-07-16T14:37:01;4.88;;;3.70;;
23490;SDS011;14683;50.038;8.078;2023-07-16T14:40:02;5.63;;;3.83;;
23490;SDS011;14683;50.038;8.078;2023-07-16T14:43:08;8.60;;;3.90;;
23490;SDS011;14683;50.038;8.078;2023-07-16T14:46:09;7.32;;;5.53;;
23490;SDS011;14683;50.038;8.078;2023-07-16T14:49:16;6.03;;;4.38;;
23490;SDS011;14683;50.038;8.078;2023-07-16T14:52:17;5.82;;;3.88;;
23490;SDS011;14683;50.038;8.078;2023-07-16T14:55:19;6.95;;;4.00;;
23490;SDS011;14683;50.038;8.078;2023-07-16T14:58:21;3.95;;;3.50;;
23490;SDS011;14683;50.038;8.078;2023-07-16T15:01:22;7.25;;;4.82;;
23490;SDS011;14683;50.038;8.078;2023-07-16T15:04:24;6.20;;;4.22;;
23490;SDS011;14683;50.038;8.078;2023-07-16T15:07:25;5.32;;;4.22;;
23490;SDS011;14683;50.038;8.078;2023-07-16T15:10:26;6.53;;;4.43;;
23490;SDS011;14683;50.038;8.078;2023-07-16T15:13:27;6.07;;;4.10;;
23490;SDS011;14683;50.038;8.078;2023-07-16T15:16:29;6.20;;;4.07;;
23490;SDS011;14683;50.038;8.078;2023-07-16T15:19:30;6.90;;;4.10;;
23490;SDS011;14683;50.038;8.078;2023-07-16T15:22:31;5.85;;;4.50;;
23490;SDS011;14683;50.038;8.078;2023-07-16T15:25:34;7.65;;;4.10;;
23490;SDS011;14683;50.038;8.078;2023-07-16T15:28:35;6.32;;;3.78;;
23490;SDS011;14683;50.038;8.078;2023-07-16T15:31:38;7.38;;;4.20;;
23490;SDS011;14683;50.038;8.078;2023-07-16T15:34:39;5.15;;;4.07;;
23490;SDS011;14683;50.038;8.078;2023-07-16T15:37:42;5.85;;;4.22;;
23490;SDS011;14683;50.038;8.078;2023-07-16T15:40:43;7.25;;;4.18;;
23490;SDS011;14683;50.038;8.078;2023-07-16T15:43:45;8.57;;;4.30;;
23490;SDS011;14683;50.038;8.078;2023-07-16T15:46:49;7.60;;;4.80;;
23490;SDS011;14683;50.038;8.078;2023-07-16T15:49:50;7.13;;;4.20;;
23490;SDS011;14683;50.038;8.078;2023-07-16T15:52:51;7.05;;;4.28;;
23490;SDS011;14683;50.038;8.078;2023-07-16T15:55:53;8.13;;;4.55;;
23490;SDS011;14683;50.038;8.078;2023-07-16T15:58:55;6.70;;;4.07;;
23490;SDS011;14683;50.038;8.078;2023-07-16T16:01:56;7.43;;;4.78;;
23490;SDS011;14683;50.038;8.078;2023-07-16T16:04:58;7.22;;;4.25;;
23490;SDS011;14683;50.038;8.078;2023-07-16T16:11:19;7.38;;;4.78;;
23490;SDS011;14683;50.038;8.078;2023-07-16T16:14:21;7.22;;;4.50;;
23490;SDS011;14683;50.038;8.078;2023-07-16T16:17:22;7.07;;;4.57;;
23490;SDS011;14683;50.038;8.078;2023-07-16T16:20:23;6.38;;;4.10;;
23490;SDS011;14683;50.038;8.078;2023-07-16T16:23:25;6.35;;;4.72;;
23490;SDS011;14683;50.038;8.078;2023-07-16T16:26:26;6.88;;;4.55;;
23490;SDS011;14683;50.038;8.078;2023-07-16T16:29:27;6.03;;;4.20;;
23490;SDS011;14683;50.038;8.078;2023-07-16T16:32:28;5.03;;;4.53;;
23490;SDS011;14683;50.038;8.078;2023-07-16T16:35:33;5.22;;;4.38;;
23490;SDS011;14683;50.038;8.078;2023-07-16T16:38:41;8.10;;;4.38;;
23490;SDS011;14683;50.038;8.078;2023-07-16T16:41:42;4.43;;;4.00;;
23490;SDS011;14683;50.038;8.078;2023-07-16T16:44:44;7.53;;;4.65;;
23490;SDS011;14683;50.038;8.078;2023-07-16T16:47:45;9.25;;;4.47;;
23490;SDS011;14683;50.038;8.078;2023-07-16T16:50:46;9.90;;;4.60;;
23490;SDS011;14683;50.038;8.078;2023-07-16T16:53:47;9.85;;;4.75;;
23490;SDS011;14683;50.038;8.078;2023-07-16T16:56:48;7.22;;;4.22;;
23490;SDS011;14683;50.038;8.078;2023-07-16T16:59:50;7.97;;;4.50;;
23490;SDS011;14683;50.038;8.078;2023-07-16T17:02:53;9.43;;;4.95;;
23490;SDS011;14683;50.038;8.078;2023-07-16T17:05:54;7.40;;;4.60;;
23490;SDS011;14683;50.038;8.078;2023-07-16T17:08:58;6.03;;;4.60;;
23490;SDS011;14683;50.038;8.078;2023-07-16T17:11:59;8.32;;;4.22;;
23490;SDS011;14683;50.038;8.078;2023-07-16T17:15:00;7.35;;;4.40;;
23490;SDS011;14683;50.038;8.078;2023-07-16T17:18:01;6.18;;;4.35;;
23490;SDS011;14683;50.038;8.078;2023-07-16T17:21:03;6.32;;;4.57;;
23490;SDS011;14683;50.038;8.078;2023-07-16T17:24:04;7.68;;;4.60;;
23490;SDS011;14683;50.038;8.078;2023-07-16T17:27:05;7.80;;;4.82;;
23490;SDS011;14683;50.038;8.078;2023-07-16T17:30:07;4.80;;;4.07;;
23490;SDS011;14683;50.038;8.078;2023-07-16T17:33:08;8.10;;;4.97;;
23490;SDS011;14683;50.038;8.078;2023-07-16T17:36:10;7.32;;;4.55;;
23490;SDS011;14683;50.038;8.078;2023-07-16T17:39:11;6.00;;;4.50;;
23490;SDS011;14683;50.038;8.078;2023-07-16T17:42:14;5.72;;;4.72;;
23490;SDS011;14683;50.038;8.078;2023-07-16T17:45:16;6.68;;;3.97;;
23490;SDS011;14683;50.038;8.078;2023-07-16T17:48:17;7.15;;;4.57;;
23490;SDS011;14683;50.038;8.078;2023-07-16T17:51:20;7.32;;;4.30;;
23490;SDS011;14683;50.038;8.078;2023-07-16T17:54:21;6.20;;;4.40;;
23490;SDS011;14683;50.038;8.078;2023-07-16T17:57:23;9.00;;;4.68;;
23490;SDS011;14683;50.038;8.078;2023-07-16T18:00:24;6.53;;;4.25;;
23490;SDS011;14683;50.038;8.078;2023-07-16T18:03:25;7.70;;;4.80;;
23490;SDS011;14683;50.038;8.078;2023-07-16T18:06:26;7.75;;;4.78;;
23490;SDS011;14683;50.038;8.078;2023-07-16T18:09:28;7.18;;;4.40;;
23490;SDS011;14683;50.038;8.078;2023-07-16T18:12:29;6.68;;;4.72;;
23490;SDS011;14683;50.038;8.078;2023-07-16T18:15:30;7.78;;;4.57;;
23490;SDS011;14683;50.038;8.078;2023-07-16T18:18:31;6.32;;;4.18;;
23490;SDS011;14683;50.038;8.078;2023-07-16T18:21:33;8.45;;;4.50;;
23490;SDS011;14683;50.038;8.078;2023-07-16T18:24:34;6.93;;;4.55;;
23490;SDS011;14683;50.038;8.078;2023-07-16T18:27:35;4.63;;;4.03;;
23490;SDS011;14683;50.038;8.078;2023-07-16T18:30:36;7.38;;;4.22;;
23490;SDS011;14683;50.038;8.078;2023-07-16T18:33:37;5.25;;;4.28;;
23490;SDS011;14683;50.038;8.078;2023-07-16T18:36:38;5.38;;;4.05;;
23490;SDS011;14683;50.038;8.078;2023-07-16T18:39:39;6.30;;;4.55;;
23490;SDS011;14683;50.038;8.078;2023-07-16T18:42:40;5.35;;;4.20;;
23490;SDS011;14683;50.038;8.078;2023-07-16T18:45:42;5.03;;;3.88;;
23490;SDS011;14683;50.038;8.078;2023-07-16T18:48:44;5.90;;;3.97;;
23490;SDS011;14683;50.038;8.078;2023-07-16T18:51:45;7.55;;;4.47;;
23490;SDS011;14683;50.038;8.078;2023-07-16T18:54:47;4.80;;;3.90;;
23490;SDS011;14683;50.038;8.078;2023-07-16T18:57:48;8.15;;;4.55;;
23490;SDS011;14683;50.038;8.078;2023-07-16T19:00:52;8.10;;;5.28;;
23490;SDS011;14683;50.038;8.078;2023-07-16T19:03:54;7.22;;;4.63;;
23490;SDS011;14683;50.038;8.078;2023-07-16T19:06:56;5.80;;;4.07;;
23490;SDS011;14683;50.038;8.078;2023-07-16T19:09:58;6.28;;;4.57;;
23490;SDS011;14683;50.038;8.078;2023-07-16T19:12:59;5.25;;;4.10;;
23490;SDS011;14683;50.038;8.078;2023-07-16T19:16:02;8.50;;;4.35;;
23490;SDS011;14683;50.038;8.078;2023-07-16T19:19:03;5.82;;;4.30;;
23490;SDS011;14683;50.038;8.078;2023-07-16T19:22:04;5.15;;;3.90;;
23490;SDS011;14683;50.038;8.078;2023-07-16T19:25:06;9.50;;;4.43;;
23490;SDS011;14683;50.038;8.078;2023-07-16T19:28:07;5.40;;;4.38;;
23490;SDS011;14683;50.038;8.078;2023-07-16T19:31:09;5.63;;;4.38;;
23490;SDS011;14683;50.038;8.078;2023-07-16T19:34:10;5.82;;;4.10;;
23490;SDS011;14683;50.038;8.078;2023-07-16T19:37:11;5.35;;;4.18;;
23490;SDS011;14683;50.038;8.078;2023-07-16T19:40:13;6.53;;;4.25;;
23490;SDS011;14683;50.038;8.078;2023-07-16T19:43:14;6.38;;;4.35;;
23490;SDS011;14683;50.038;8.078;2023-07-16T19:46:15;5.28;;;4.13;;
23490;SDS011;14683;50.038;8.078;2023-07-16T19:49:17;4.95;;;3.88;;
23490;SDS011;14683;50.038;8.078;2023-07-16T19:52:18;7.93;;;4.85;;
23490;SDS011;14683;50.038;8.078;2023-07-16T19:55:19;6.40;;;4.68;;
23490;SDS011;14683;50.038;8.078;2023-07-16T19:58:21;6.22;;;4.32;;
23490;SDS011;14683;50.038;8.078;2023-07-16T20:01:23;5.50;;;4.45;;
23490;SDS011;14683;50.038;8.078;2023-07-16T20:04:24;6.45;;;4.35;;
23490;SDS011;14683;50.038;8.078;2023-07-16T20:07:25;6.13;;;4.55;;
23490;SDS011;14683;50.038;8.078;2023-07-16T20:10:27;7.40;;;4.20;;
23490;SDS011;14683;50.038;8.078;2023-07-16T20:13:28;7.15;;;4.40;;
23490;SDS011;14683;50.038;8.078;2023-07-16T20:16:29;7.82;;;4.65;;
23490;SDS011;14683;50.038;8.078;2023-07-16T20:19:32;8.10;;;4.53;;
23490;SDS011;14683;50.038;8.078;2023-07-16T20:22:33;6.45;;;4.68;;
23490;SDS011;14683;50.038;8.078;2023-07-16T20:25:34;6.25;;;4.45;;
23490;SDS011;14683;50.038;8.078;2023-07-16T20:28:37;10.85;;;4.95;;
23490;SDS011;14683;50.038;8.078;2023-07-16T20:31:38;6.28;;;4.85;;
23490;SDS011;14683;50.038;8.078;2023-07-16T20:34:39;7.18;;;4.50;;
23490;SDS011;14683;50.038;8.078;2023-07-16T20:37:40;5.53;;;4.70;;
23490;SDS011;14683;50.038;8.078;2023-07-16T20:40:41;6.53;;;4.38;;
23490;SDS011;14683;50.038;8.078;2023-07-16T20:43:43;9.60;;;4.88;;
23490;SDS011;14683;50.038;8.078;2023-07-16T20:46:44;5.47;;;4.30;;
23490;SDS011;14683;50.038;8.078;2023-07-16T20:49:45;6.93;;;4.53;;
23490;SDS011;14683;50.038;8.078;2023-07-16T20:52:48;7.78;;;4.72;;
23490;SDS011;14683;50.038;8.078;2023-07-16T20:55:50;6.05;;;4.35;;
23490;SDS011;14683;50.038;8.078;2023-07-16T20:58:51;5.65;;;4.47;;
